sensor_id;sensor_type;location;lat;lon;timestamp;P1;durP1;ratioP1;P2;durP2;ratioP2
50337;SDS011;46221;51.178;5.900;2022-12-11T00:00:17;19.10;;;9.65;;
50337;SDS011;46221;51.178;5.900;2022-12-11T00:02:44;17.67;;;10.50;;
50337;SDS011;46221;51.178;5.900;2022-12-11T00:05:10;18.63;;;9.57;;
50337;SDS011;46221;51.178;5.900;2022-12-11T00:07:37;18.88;;;10.88;;
50337;SDS011;46221;51.178;5.900;2022-12-11T00:10:03;15.32;;;9.18;;
50337;SDS011;46221;51.178;5.900;2022-12-11T00:12:30;16.65;;;9.80;;
50337;SDS011;46221;51.178;5.900;2022-12-11T00:14:56;18.98;;;10.30;;
50337;SDS011;46221;51.178;5.900;2022-12-11T00:17:23;14.65;;;8.77;;
50337;SDS011;46221;51.178;5.900;2022-12-11T00:19:49;14.88;;;9.32;;
50337;SDS011;46221;51.178;5.900;2022-12-11T00:22:15;15.57;;;9.68;;
50337;SDS011;46221;51.178;5.900;2022-12-11T00:24:41;17.38;;;9.35;;
50337;SDS011;46221;51.178;5.900;2022-12-11T00:27:08;16.60;;;9.25;;
50337;SDS011;46221;51.178;5.900;2022-12-11T00:29:34;15.18;;;9.40;;
50337;SDS011;46221;51.178;5.900;2022-12-11T00:32:01;15.85;;;9.32;;
50337;SDS011;46221;51.178;5.900;2022-12-11T00:34:27;14.65;;;9.15;;
50337;SDS011;46221;51.178;5.900;2022-12-11T00:36:53;15.02;;;9.18;;
50337;SDS011;46221;51.178;5.900;2022-12-11T00:39:20;17.77;;;10.25;;
50337;SDS011;46221;51.178;5.900;2022-12-11T00:41:46;18.38;;;9.45;;
50337;SDS011;46221;51.178;5.900;2022-12-11T00:44:12;12.82;;;8.65;;
50337;SDS011;46221;51.178;5.900;2022-12-11T00:46:39;14.48;;;8.93;;
50337;SDS011;46221;51.178;5.900;2022-12-11T00:49:05;15.13;;;9.50;;
50337;SDS011;46221;51.178;5.900;2022-12-11T00:51:31;15.18;;;9.05;;
50337;SDS011;46221;51.178;5.900;2022-12-11T00:53:58;16.02;;;9.18;;
50337;SDS011;46221;51.178;5.900;2022-12-11T00:56:24;13.60;;;8.98;;
50337;SDS011;46221;51.178;5.900;2022-12-11T00:58:51;15.05;;;8.90;;
50337;SDS011;46221;51.178;5.900;2022-12-11T01:01:18;15.20;;;9.30;;
50337;SDS011;46221;51.178;5.900;2022-12-11T01:03:45;15.77;;;9.55;;
50337;SDS011;46221;51.178;5.900;2022-12-11T01:06:13;12.80;;;8.85;;
50337;SDS011;46221;51.178;5.900;2022-12-11T01:08:40;14.57;;;8.35;;
50337;SDS011;46221;51.178;5.900;2022-12-11T01:11:07;14.45;;;8.30;;
50337;SDS011;46221;51.178;5.900;2022-12-11T01:13:34;15.82;;;8.82;;
50337;SDS011;46221;51.178;5.900;2022-12-11T01:16:04;14.98;;;8.70;;
50337;SDS011;46221;51.178;5.900;2022-12-11T01:18:31;18.23;;;9.88;;
50337;SDS011;46221;51.178;5.900;2022-12-11T01:20:57;14.15;;;8.85;;
50337;SDS011;46221;51.178;5.900;2022-12-11T01:23:24;13.82;;;8.48;;
50337;SDS011;46221;51.178;5.900;2022-12-11T01:25:50;15.20;;;8.63;;
50337;SDS011;46221;51.178;5.900;2022-12-11T01:28:17;15.50;;;8.80;;
50337;SDS011;46221;51.178;5.900;2022-12-11T01:30:43;14.98;;;8.88;;
50337;SDS011;46221;51.178;5.900;2022-12-11T01:33:09;13.52;;;8.68;;
50337;SDS011;46221;51.178;5.900;2022-12-11T01:35:37;16.67;;;7.43;;
50337;SDS011;46221;51.178;5.900;2022-12-11T01:38:03;14.98;;;8.18;;
50337;SDS011;46221;51.178;5.900;2022-12-11T01:40:29;12.45;;;7.65;;
50337;SDS011;46221;51.178;5.900;2022-12-11T01:42:56;15.70;;;8.80;;
50337;SDS011;46221;51.178;5.900;2022-12-11T01:47:54;12.40;;;8.10;;
50337;SDS011;46221;51.178;5.900;2022-12-11T01:50:22;13.65;;;8.18;;
50337;SDS011;46221;51.178;5.900;2022-12-11T01:52:48;15.75;;;8.55;;
50337;SDS011;46221;51.178;5.900;2022-12-11T01:55:15;15.32;;;8.57;;
50337;SDS011;46221;51.178;5.900;2022-12-11T01:57:43;13.35;;;8.63;;
50337;SDS011;46221;51.178;5.900;2022-12-11T02:00:12;14.35;;;8.32;;
50337;SDS011;46221;51.178;5.900;2022-12-11T02:02:38;13.02;;;8.40;;
50337;SDS011;46221;51.178;5.900;2022-12-11T02:05:05;12.98;;;7.88;;
50337;SDS011;46221;51.178;5.900;2022-12-11T02:07:36;13.85;;;7.43;;
50337;SDS011;46221;51.178;5.900;2022-12-11T02:10:03;13.15;;;8.40;;
50337;SDS011;46221;51.178;5.900;2022-12-11T02:15:05;11.15;;;6.90;;
50337;SDS011;46221;51.178;5.900;2022-12-11T02:17:41;12.23;;;7.72;;
50337;SDS011;46221;51.178;5.900;2022-12-11T02:25:25;12.80;;;7.32;;
50337;SDS011;46221;51.178;5.900;2022-12-11T02:30:31;12.23;;;8.20;;
50337;SDS011;46221;51.178;5.900;2022-12-11T02:32:59;12.25;;;7.25;;
50337;SDS011;46221;51.178;5.900;2022-12-11T02:35:36;13.07;;;8.23;;
50337;SDS011;46221;51.178;5.900;2022-12-11T02:38:06;12.35;;;7.75;;
50337;SDS011;46221;51.178;5.900;2022-12-11T02:40:34;12.45;;;7.65;;
50337;SDS011;46221;51.178;5.900;2022-12-11T02:43:02;12.70;;;7.70;;
50337;SDS011;46221;51.178;5.900;2022-12-11T02:45:29;12.88;;;7.20;;
50337;SDS011;46221;51.178;5.900;2022-12-11T02:47:57;13.88;;;7.18;;
50337;SDS011;46221;51.178;5.900;2022-12-11T02:50:25;12.27;;;8.38;;
50337;SDS011;46221;51.178;5.900;2022-12-11T02:52:52;13.52;;;7.57;;
50337;SDS011;46221;51.178;5.900;2022-12-11T02:55:20;12.05;;;7.13;;
50337;SDS011;46221;51.178;5.900;2022-12-11T02:57:48;12.57;;;7.30;;
50337;SDS011;46221;51.178;5.900;2022-12-11T03:00:19;12.55;;;7.05;;
50337;SDS011;46221;51.178;5.900;2022-12-11T03:02:46;11.20;;;6.80;;
50337;SDS011;46221;51.178;5.900;2022-12-11T03:05:12;12.50;;;7.45;;
50337;SDS011;46221;51.178;5.900;2022-12-11T03:07:40;14.18;;;8.30;;
50337;SDS011;46221;51.178;5.900;2022-12-11T03:10:07;11.77;;;7.10;;
50337;SDS011;46221;51.178;5.900;2022-12-11T03:12:35;10.32;;;6.93;;
50337;SDS011;46221;51.178;5.900;2022-12-11T03:15:03;12.90;;;7.40;;
50337;SDS011;46221;51.178;5.900;2022-12-11T03:17:34;11.43;;;7.07;;
50337;SDS011;46221;51.178;5.900;2022-12-11T03:22:36;11.18;;;6.95;;
50337;SDS011;46221;51.178;5.900;2022-12-11T03:25:08;12.50;;;7.30;;
50337;SDS011;46221;51.178;5.900;2022-12-11T03:27:37;11.38;;;6.40;;
50337;SDS011;46221;51.178;5.900;2022-12-11T03:30:09;10.50;;;6.70;;
50337;SDS011;46221;51.178;5.900;2022-12-11T03:32:43;11.13;;;7.22;;
50337;SDS011;46221;51.178;5.900;2022-12-11T03:37:56;9.25;;;5.95;;
50337;SDS011;46221;51.178;5.900;2022-12-11T03:40:25;12.02;;;6.90;;
50337;SDS011;46221;51.178;5.900;2022-12-11T03:42:52;11.88;;;7.25;;
50337;SDS011;46221;51.178;5.900;2022-12-11T03:45:21;11.82;;;7.47;;
50337;SDS011;46221;51.178;5.900;2022-12-11T03:47:47;10.50;;;6.30;;
50337;SDS011;46221;51.178;5.900;2022-12-11T03:50:15;12.73;;;7.88;;
50337;SDS011;46221;51.178;5.900;2022-12-11T03:52:43;9.85;;;6.00;;
50337;SDS011;46221;51.178;5.900;2022-12-11T03:55:12;11.43;;;6.50;;
50337;SDS011;46221;51.178;5.900;2022-12-11T03:57:39;10.60;;;6.53;;
50337;SDS011;46221;51.178;5.900;2022-12-11T04:00:09;34.42;;;7.38;;
50337;SDS011;46221;51.178;5.900;2022-12-11T04:02:36;9.88;;;6.60;;
50337;SDS011;46221;51.178;5.900;2022-12-11T04:05:03;9.88;;;5.75;;
50337;SDS011;46221;51.178;5.900;2022-12-11T04:07:29;12.65;;;6.68;;
50337;SDS011;46221;51.178;5.900;2022-12-11T04:09:56;10.88;;;6.57;;
50337;SDS011;46221;51.178;5.900;2022-12-11T04:12:22;10.75;;;5.93;;
50337;SDS011;46221;51.178;5.900;2022-12-11T04:14:49;10.25;;;6.40;;
50337;SDS011;46221;51.178;5.900;2022-12-11T04:17:31;11.25;;;6.20;;
50337;SDS011;46221;51.178;5.900;2022-12-11T04:20:16;10.43;;;6.38;;
50337;SDS011;46221;51.178;5.900;2022-12-11T04:23:11;10.05;;;5.75;;
50337;SDS011;46221;51.178;5.900;2022-12-11T04:26:03;11.18;;;6.28;;
50337;SDS011;46221;51.178;5.900;2022-12-11T04:28:30;10.70;;;5.82;;
50337;SDS011;46221;51.178;5.900;2022-12-11T04:30:56;10.80;;;6.47;;
50337;SDS011;46221;51.178;5.900;2022-12-11T04:33:22;10.00;;;6.20;;
50337;SDS011;46221;51.178;5.900;2022-12-11T04:35:49;10.90;;;6.95;;
50337;SDS011;46221;51.178;5.900;2022-12-11T04:38:15;10.32;;;7.15;;
50337;SDS011;46221;51.178;5.900;2022-12-11T04:40:41;9.07;;;6.25;;
50337;SDS011;46221;51.178;5.900;2022-12-11T04:43:08;9.85;;;6.07;;
50337;SDS011;46221;51.178;5.900;2022-12-11T04:45:34;9.52;;;5.82;;
50337;SDS011;46221;51.178;5.900;2022-12-11T04:48:00;11.48;;;6.22;;
50337;SDS011;46221;51.178;5.900;2022-12-11T04:50:27;9.77;;;5.85;;
50337;SDS011;46221;51.178;5.900;2022-12-11T04:52:54;11.70;;;6.68;;
50337;SDS011;46221;51.178;5.900;2022-12-11T04:55:20;9.60;;;5.32;;
50337;SDS011;46221;51.178;5.900;2022-12-11T04:57:47;10.43;;;6.40;;
50337;SDS011;46221;51.178;5.900;2022-12-11T05:00:13;10.15;;;6.22;;
50337;SDS011;46221;51.178;5.900;2022-12-11T05:02:40;10.82;;;5.95;;
50337;SDS011;46221;51.178;5.900;2022-12-11T05:05:08;9.50;;;5.95;;
50337;SDS011;46221;51.178;5.900;2022-12-11T05:07:36;9.57;;;5.95;;
50337;SDS011;46221;51.178;5.900;2022-12-11T05:10:03;9.73;;;6.03;;
50337;SDS011;46221;51.178;5.900;2022-12-11T05:12:30;9.90;;;5.85;;
50337;SDS011;46221;51.178;5.900;2022-12-11T05:14:57;11.32;;;5.68;;
50337;SDS011;46221;51.178;5.900;2022-12-11T05:17:23;9.10;;;5.93;;
50337;SDS011;46221;51.178;5.900;2022-12-11T05:19:50;9.23;;;5.88;;
50337;SDS011;46221;51.178;5.900;2022-12-11T05:22:16;10.43;;;6.05;;
50337;SDS011;46221;51.178;5.900;2022-12-11T05:24:43;13.00;;;7.03;;
50337;SDS011;46221;51.178;5.900;2022-12-11T05:27:10;11.20;;;6.03;;
50337;SDS011;46221;51.178;5.900;2022-12-11T05:29:36;9.90;;;6.40;;
50337;SDS011;46221;51.178;5.900;2022-12-11T05:32:03;8.80;;;5.85;;
50337;SDS011;46221;51.178;5.900;2022-12-11T05:34:30;8.80;;;5.40;;
50337;SDS011;46221;51.178;5.900;2022-12-11T05:36:56;10.68;;;6.57;;
50337;SDS011;46221;51.178;5.900;2022-12-11T05:39:22;10.02;;;6.07;;
50337;SDS011;46221;51.178;5.900;2022-12-11T05:41:49;10.57;;;5.60;;
50337;SDS011;46221;51.178;5.900;2022-12-11T05:44:15;9.02;;;5.03;;
50337;SDS011;46221;51.178;5.900;2022-12-11T05:46:41;11.02;;;5.97;;
50337;SDS011;46221;51.178;5.900;2022-12-11T05:49:08;8.52;;;5.95;;
50337;SDS011;46221;51.178;5.900;2022-12-11T05:51:35;8.68;;;5.60;;
50337;SDS011;46221;51.178;5.900;2022-12-11T05:54:01;8.30;;;5.15;;
50337;SDS011;46221;51.178;5.900;2022-12-11T05:56:29;7.70;;;4.90;;
50337;SDS011;46221;51.178;5.900;2022-12-11T05:58:56;9.27;;;5.32;;
50337;SDS011;46221;51.178;5.900;2022-12-11T06:01:24;8.30;;;5.40;;
50337;SDS011;46221;51.178;5.900;2022-12-11T06:03:50;8.95;;;5.93;;
50337;SDS011;46221;51.178;5.900;2022-12-11T06:06:17;8.05;;;4.78;;
50337;SDS011;46221;51.178;5.900;2022-12-11T06:08:43;7.43;;;4.68;;
50337;SDS011;46221;51.178;5.900;2022-12-11T06:11:10;7.38;;;4.72;;
50337;SDS011;46221;51.178;5.900;2022-12-11T06:13:37;8.98;;;5.75;;
50337;SDS011;46221;51.178;5.900;2022-12-11T06:16:04;8.65;;;5.25;;
50337;SDS011;46221;51.178;5.900;2022-12-11T06:18:31;9.23;;;5.55;;
50337;SDS011;46221;51.178;5.900;2022-12-11T06:21:00;8.68;;;4.78;;
50337;SDS011;46221;51.178;5.900;2022-12-11T06:23:26;8.40;;;5.35;;
50337;SDS011;46221;51.178;5.900;2022-12-11T06:25:52;7.50;;;4.75;;
50337;SDS011;46221;51.178;5.900;2022-12-11T06:28:19;9.32;;;5.72;;
50337;SDS011;46221;51.178;5.900;2022-12-11T06:30:45;8.60;;;6.25;;
50337;SDS011;46221;51.178;5.900;2022-12-11T06:33:11;8.07;;;5.57;;
50337;SDS011;46221;51.178;5.900;2022-12-11T06:35:38;10.55;;;5.90;;
50337;SDS011;46221;51.178;5.900;2022-12-11T06:38:07;7.82;;;5.35;;
50337;SDS011;46221;51.178;5.900;2022-12-11T06:40:33;10.57;;;5.70;;
50337;SDS011;46221;51.178;5.900;2022-12-11T06:43:00;8.80;;;4.63;;
50337;SDS011;46221;51.178;5.900;2022-12-11T06:45:26;8.75;;;5.60;;
50337;SDS011;46221;51.178;5.900;2022-12-11T06:47:53;7.85;;;4.80;;
50337;SDS011;46221;51.178;5.900;2022-12-11T06:50:19;7.30;;;4.30;;
50337;SDS011;46221;51.178;5.900;2022-12-11T06:52:45;7.95;;;4.63;;
50337;SDS011;46221;51.178;5.900;2022-12-11T06:55:12;7.70;;;4.72;;
50337;SDS011;46221;51.178;5.900;2022-12-11T06:57:38;7.57;;;4.13;;
50337;SDS011;46221;51.178;5.900;2022-12-11T07:00:07;7.60;;;3.80;;
50337;SDS011;46221;51.178;5.900;2022-12-11T07:02:33;8.30;;;4.88;;
50337;SDS011;46221;51.178;5.900;2022-12-11T07:05:00;7.05;;;4.45;;
50337;SDS011;46221;51.178;5.900;2022-12-11T07:07:26;8.18;;;4.57;;
50337;SDS011;46221;51.178;5.900;2022-12-11T07:09:53;8.13;;;4.88;;
50337;SDS011;46221;51.178;5.900;2022-12-11T07:12:23;7.68;;;4.88;;
50337;SDS011;46221;51.178;5.900;2022-12-11T07:14:53;9.10;;;5.40;;
50337;SDS011;46221;51.178;5.900;2022-12-11T07:17:19;9.02;;;5.05;;
50337;SDS011;46221;51.178;5.900;2022-12-11T07:19:46;8.52;;;4.93;;
50337;SDS011;46221;51.178;5.900;2022-12-11T07:22:12;8.07;;;5.05;;
50337;SDS011;46221;51.178;5.900;2022-12-11T07:24:38;7.63;;;4.65;;
50337;SDS011;46221;51.178;5.900;2022-12-11T07:27:05;9.20;;;4.95;;
50337;SDS011;46221;51.178;5.900;2022-12-11T07:29:31;9.40;;;5.40;;
50337;SDS011;46221;51.178;5.900;2022-12-11T07:31:57;7.85;;;4.88;;
50337;SDS011;46221;51.178;5.900;2022-12-11T07:34:24;8.13;;;5.20;;
50337;SDS011;46221;51.178;5.900;2022-12-11T07:36:50;8.80;;;4.82;;
50337;SDS011;46221;51.178;5.900;2022-12-11T07:39:17;9.82;;;5.03;;
50337;SDS011;46221;51.178;5.900;2022-12-11T07:41:43;8.55;;;5.13;;
50337;SDS011;46221;51.178;5.900;2022-12-11T07:44:09;7.50;;;4.60;;
50337;SDS011;46221;51.178;5.900;2022-12-11T07:46:37;8.70;;;4.90;;
50337;SDS011;46221;51.178;5.900;2022-12-11T07:49:03;8.02;;;4.72;;
50337;SDS011;46221;51.178;5.900;2022-12-11T07:51:31;8.52;;;5.15;;
50337;SDS011;46221;51.178;5.900;2022-12-11T07:53:58;8.07;;;4.80;;
50337;SDS011;46221;51.178;5.900;2022-12-11T07:56:25;9.10;;;4.60;;
50337;SDS011;46221;51.178;5.900;2022-12-11T07:58:52;9.00;;;5.53;;
50337;SDS011;46221;51.178;5.900;2022-12-11T08:01:19;10.57;;;4.97;;
50337;SDS011;46221;51.178;5.900;2022-12-11T08:03:46;8.77;;;4.97;;
50337;SDS011;46221;51.178;5.900;2022-12-11T08:06:13;9.15;;;5.50;;
50337;SDS011;46221;51.178;5.900;2022-12-11T08:08:40;10.15;;;5.47;;
50337;SDS011;46221;51.178;5.900;2022-12-11T08:11:08;7.80;;;4.35;;
50337;SDS011;46221;51.178;5.900;2022-12-11T08:13:35;7.70;;;4.57;;
50337;SDS011;46221;51.178;5.900;2022-12-11T08:16:05;8.35;;;4.60;;
50337;SDS011;46221;51.178;5.900;2022-12-11T08:18:32;8.77;;;5.00;;
50337;SDS011;46221;51.178;5.900;2022-12-11T08:21:03;7.78;;;4.30;;
50337;SDS011;46221;51.178;5.900;2022-12-11T08:23:30;7.13;;;4.55;;
50337;SDS011;46221;51.178;5.900;2022-12-11T08:25:56;7.85;;;4.82;;
50337;SDS011;46221;51.178;5.900;2022-12-11T08:28:22;7.25;;;4.18;;
50337;SDS011;46221;51.178;5.900;2022-12-11T08:30:49;9.32;;;5.40;;
50337;SDS011;46221;51.178;5.900;2022-12-11T08:33:15;8.48;;;5.55;;
50337;SDS011;46221;51.178;5.900;2022-12-11T08:35:41;7.32;;;4.50;;
50337;SDS011;46221;51.178;5.900;2022-12-11T08:38:09;9.20;;;4.70;;
50337;SDS011;46221;51.178;5.900;2022-12-11T08:40:35;7.60;;;4.75;;
50337;SDS011;46221;51.178;5.900;2022-12-11T08:43:01;9.13;;;5.95;;
50337;SDS011;46221;51.178;5.900;2022-12-11T08:45:28;8.05;;;5.30;;
50337;SDS011;46221;51.178;5.900;2022-12-11T08:47:54;9.77;;;5.07;;
50337;SDS011;46221;51.178;5.900;2022-12-11T08:50:26;7.63;;;4.72;;
50337;SDS011;46221;51.178;5.900;2022-12-11T08:52:52;7.22;;;4.70;;
50337;SDS011;46221;51.178;5.900;2022-12-11T08:55:19;8.98;;;4.90;;
50337;SDS011;46221;51.178;5.900;2022-12-11T08:57:47;7.00;;;4.68;;
50337;SDS011;46221;51.178;5.900;2022-12-11T09:00:16;7.28;;;4.60;;
50337;SDS011;46221;51.178;5.900;2022-12-11T09:02:47;7.72;;;4.68;;
50337;SDS011;46221;51.178;5.900;2022-12-11T09:05:13;6.95;;;4.63;;
50337;SDS011;46221;51.178;5.900;2022-12-11T09:07:40;7.15;;;4.70;;
50337;SDS011;46221;51.178;5.900;2022-12-11T09:10:06;6.53;;;4.28;;
50337;SDS011;46221;51.178;5.900;2022-12-11T09:12:33;8.57;;;4.78;;
50337;SDS011;46221;51.178;5.900;2022-12-11T09:14:59;8.02;;;5.10;;
50337;SDS011;46221;51.178;5.900;2022-12-11T09:17:26;6.68;;;4.75;;
50337;SDS011;46221;51.178;5.900;2022-12-11T09:19:52;7.20;;;4.35;;
50337;SDS011;46221;51.178;5.900;2022-12-11T09:22:18;6.55;;;4.53;;
50337;SDS011;46221;51.178;5.900;2022-12-11T09:24:45;6.72;;;4.22;;
50337;SDS011;46221;51.178;5.900;2022-12-11T09:27:12;8.07;;;4.63;;
50337;SDS011;46221;51.178;5.900;2022-12-11T09:29:38;6.82;;;3.85;;
50337;SDS011;46221;51.178;5.900;2022-12-11T09:32:04;7.47;;;4.22;;
50337;SDS011;46221;51.178;5.900;2022-12-11T09:34:33;7.20;;;4.07;;
50337;SDS011;46221;51.178;5.900;2022-12-11T09:37:02;7.32;;;4.55;;
50337;SDS011;46221;51.178;5.900;2022-12-11T09:39:29;5.25;;;3.78;;
50337;SDS011;46221;51.178;5.900;2022-12-11T09:44:37;8.35;;;3.95;;
50337;SDS011;46221;51.178;5.900;2022-12-11T09:49:52;5.90;;;3.83;;
50337;SDS011;46221;51.178;5.900;2022-12-11T09:52:22;7.57;;;4.20;;
50337;SDS011;46221;51.178;5.900;2022-12-11T09:54:56;5.88;;;4.05;;
50337;SDS011;46221;51.178;5.900;2022-12-11T10:02:41;7.18;;;4.05;;
50337;SDS011;46221;51.178;5.900;2022-12-11T10:07:51;5.95;;;3.97;;
50337;SDS011;46221;51.178;5.900;2022-12-11T10:12:57;6.18;;;3.47;;
50337;SDS011;46221;51.178;5.900;2022-12-11T10:17:57;5.72;;;3.58;;
50337;SDS011;46221;51.178;5.900;2022-12-11T10:20:31;6.35;;;3.92;;
50337;SDS011;46221;51.178;5.900;2022-12-11T10:23:02;7.40;;;4.00;;
50337;SDS011;46221;51.178;5.900;2022-12-11T10:25:31;7.97;;;3.90;;
50337;SDS011;46221;51.178;5.900;2022-12-11T10:27:59;6.72;;;3.78;;
50337;SDS011;46221;51.178;5.900;2022-12-11T10:30:32;7.82;;;4.00;;
50337;SDS011;46221;51.178;5.900;2022-12-11T10:35:49;6.45;;;4.00;;
50337;SDS011;46221;51.178;5.900;2022-12-11T10:38:26;6.72;;;4.00;;
50337;SDS011;46221;51.178;5.900;2022-12-11T10:40:54;7.10;;;4.03;;
50337;SDS011;46221;51.178;5.900;2022-12-11T10:43:35;6.88;;;3.53;;
50337;SDS011;46221;51.178;5.900;2022-12-11T10:46:03;6.53;;;4.03;;
50337;SDS011;46221;51.178;5.900;2022-12-11T10:48:30;5.88;;;3.40;;
50337;SDS011;46221;51.178;5.900;2022-12-11T10:51:05;6.30;;;3.42;;
50337;SDS011;46221;51.178;5.900;2022-12-11T10:53:32;6.40;;;3.90;;
50337;SDS011;46221;51.178;5.900;2022-12-11T10:55:59;6.55;;;3.58;;
50337;SDS011;46221;51.178;5.900;2022-12-11T10:58:27;5.13;;;3.65;;
50337;SDS011;46221;51.178;5.900;2022-12-11T11:01:15;7.60;;;5.28;;
50337;SDS011;46221;51.178;5.900;2022-12-11T11:03:54;7.95;;;5.93;;
50337;SDS011;46221;51.178;5.900;2022-12-11T11:06:22;9.13;;;5.97;;
50337;SDS011;46221;51.178;5.900;2022-12-11T11:08:50;10.48;;;6.35;;
50337;SDS011;46221;51.178;5.900;2022-12-11T11:11:33;10.30;;;5.85;;
50337;SDS011;46221;51.178;5.900;2022-12-11T11:14:06;9.48;;;5.63;;
50337;SDS011;46221;51.178;5.900;2022-12-11T11:16:36;8.35;;;5.35;;
50337;SDS011;46221;51.178;5.900;2022-12-11T11:19:03;8.15;;;4.25;;
50337;SDS011;46221;51.178;5.900;2022-12-11T11:21:29;8.60;;;4.47;;
50337;SDS011;46221;51.178;5.900;2022-12-11T11:23:56;7.22;;;4.57;;
50337;SDS011;46221;51.178;5.900;2022-12-11T11:26:23;9.27;;;4.90;;
50337;SDS011;46221;51.178;5.900;2022-12-11T11:29:14;9.73;;;4.07;;
50337;SDS011;46221;51.178;5.900;2022-12-11T11:31:47;7.20;;;4.38;;
50337;SDS011;46221;51.178;5.900;2022-12-11T11:34:14;7.75;;;4.35;;
50337;SDS011;46221;51.178;5.900;2022-12-11T11:36:44;8.82;;;4.47;;
50337;SDS011;46221;51.178;5.900;2022-12-11T11:39:36;8.70;;;3.65;;
50337;SDS011;46221;51.178;5.900;2022-12-11T11:42:07;7.70;;;4.85;;
50337;SDS011;46221;51.178;5.900;2022-12-11T11:44:36;7.32;;;4.50;;
50337;SDS011;46221;51.178;5.900;2022-12-11T11:47:10;7.57;;;5.10;;
50337;SDS011;46221;51.178;5.900;2022-12-11T11:49:48;10.10;;;4.45;;
50337;SDS011;46221;51.178;5.900;2022-12-11T11:52:23;10.07;;;5.30;;
50337;SDS011;46221;51.178;5.900;2022-12-11T11:57:37;6.55;;;4.28;;
50337;SDS011;46221;51.178;5.900;2022-12-11T12:00:19;6.75;;;4.32;;
50337;SDS011;46221;51.178;5.900;2022-12-11T12:02:46;9.40;;;5.20;;
50337;SDS011;46221;51.178;5.900;2022-12-11T12:05:14;10.35;;;4.45;;
50337;SDS011;46221;51.178;5.900;2022-12-11T12:10:09;9.65;;;4.97;;
50337;SDS011;46221;51.178;5.900;2022-12-11T12:15:42;7.28;;;4.20;;
50337;SDS011;46221;51.178;5.900;2022-12-11T12:18:17;7.88;;;5.30;;
50337;SDS011;46221;51.178;5.900;2022-12-11T12:26:07;8.48;;;4.40;;
50337;SDS011;46221;51.178;5.900;2022-12-11T12:36:27;7.18;;;4.22;;
50337;SDS011;46221;51.178;5.900;2022-12-11T12:39:02;9.07;;;4.78;;
50337;SDS011;46221;51.178;5.900;2022-12-11T12:44:17;7.80;;;4.50;;
50337;SDS011;46221;51.178;5.900;2022-12-11T12:46:58;11.43;;;5.35;;
50337;SDS011;46221;51.178;5.900;2022-12-11T12:49:33;9.43;;;4.88;;
50337;SDS011;46221;51.178;5.900;2022-12-11T12:52:00;9.13;;;4.47;;
50337;SDS011;46221;51.178;5.900;2022-12-11T12:54:28;7.13;;;4.90;;
50337;SDS011;46221;51.178;5.900;2022-12-11T12:56:55;6.82;;;4.35;;
50337;SDS011;46221;51.178;5.900;2022-12-11T12:59:23;8.45;;;4.85;;
50337;SDS011;46221;51.178;5.900;2022-12-11T13:01:52;7.72;;;4.97;;
50337;SDS011;46221;51.178;5.900;2022-12-11T13:04:34;8.10;;;4.80;;
50337;SDS011;46221;51.178;5.900;2022-12-11T13:07:21;8.82;;;4.70;;
50337;SDS011;46221;51.178;5.900;2022-12-11T13:09:59;7.40;;;4.47;;
50337;SDS011;46221;51.178;5.900;2022-12-11T13:12:33;8.50;;;4.43;;
50337;SDS011;46221;51.178;5.900;2022-12-11T13:15:04;8.43;;;5.50;;
50337;SDS011;46221;51.178;5.900;2022-12-11T13:17:36;7.43;;;4.53;;
50337;SDS011;46221;51.178;5.900;2022-12-11T13:20:11;8.18;;;5.35;;
50337;SDS011;46221;51.178;5.900;2022-12-11T13:25:43;8.05;;;4.93;;
50337;SDS011;46221;51.178;5.900;2022-12-11T13:28:19;8.20;;;5.03;;
50337;SDS011;46221;51.178;5.900;2022-12-11T13:31:54;8.48;;;4.47;;
50337;SDS011;46221;51.178;5.900;2022-12-11T13:33:52;7.28;;;4.35;;
50337;SDS011;46221;51.178;5.900;2022-12-11T13:38:59;6.95;;;4.00;;
50337;SDS011;46221;51.178;5.900;2022-12-11T13:41:26;7.25;;;4.53;;
50337;SDS011;46221;51.178;5.900;2022-12-11T13:43:53;10.25;;;4.80;;
50337;SDS011;46221;51.178;5.900;2022-12-11T13:46:23;7.63;;;4.45;;
50337;SDS011;46221;51.178;5.900;2022-12-11T13:48:52;7.05;;;4.45;;
50337;SDS011;46221;51.178;5.900;2022-12-11T13:51:23;8.02;;;4.75;;
50337;SDS011;46221;51.178;5.900;2022-12-11T13:54:01;6.32;;;4.55;;
50337;SDS011;46221;51.178;5.900;2022-12-11T13:56:28;6.80;;;3.80;;
50337;SDS011;46221;51.178;5.900;2022-12-11T13:58:55;6.10;;;4.15;;
50337;SDS011;46221;51.178;5.900;2022-12-11T14:01:22;6.70;;;4.90;;
50337;SDS011;46221;51.178;5.900;2022-12-11T14:03:54;6.85;;;4.57;;
50337;SDS011;46221;51.178;5.900;2022-12-11T14:06:20;7.45;;;5.13;;
50337;SDS011;46221;51.178;5.900;2022-12-11T14:08:49;8.05;;;4.50;;
50337;SDS011;46221;51.178;5.900;2022-12-11T14:11:17;8.02;;;5.03;;
50337;SDS011;46221;51.178;5.900;2022-12-11T14:13:46;6.72;;;4.32;;
50337;SDS011;46221;51.178;5.900;2022-12-11T14:16:13;8.68;;;5.30;;
50337;SDS011;46221;51.178;5.900;2022-12-11T14:18:44;6.55;;;4.50;;
50337;SDS011;46221;51.178;5.900;2022-12-11T14:21:18;8.00;;;5.22;;
50337;SDS011;46221;51.178;5.900;2022-12-11T14:23:50;8.80;;;5.22;;
50337;SDS011;46221;51.178;5.900;2022-12-11T14:26:18;6.50;;;4.35;;
50337;SDS011;46221;51.178;5.900;2022-12-11T14:28:47;7.85;;;4.50;;
50337;SDS011;46221;51.178;5.900;2022-12-11T14:31:14;7.85;;;5.00;;
50337;SDS011;46221;51.178;5.900;2022-12-11T14:33:43;6.50;;;4.38;;
50337;SDS011;46221;51.178;5.900;2022-12-11T14:36:10;7.63;;;4.88;;
50337;SDS011;46221;51.178;5.900;2022-12-11T14:38:37;9.13;;;4.68;;
50337;SDS011;46221;51.178;5.900;2022-12-11T14:41:07;6.82;;;4.40;;
50337;SDS011;46221;51.178;5.900;2022-12-11T14:43:38;7.90;;;5.20;;
50337;SDS011;46221;51.178;5.900;2022-12-11T14:46:08;6.72;;;5.00;;
50337;SDS011;46221;51.178;5.900;2022-12-11T14:48:37;8.27;;;5.10;;
50337;SDS011;46221;51.178;5.900;2022-12-11T14:51:06;8.48;;;4.75;;
50337;SDS011;46221;51.178;5.900;2022-12-11T14:53:37;6.93;;;4.47;;
50337;SDS011;46221;51.178;5.900;2022-12-11T14:56:07;7.05;;;4.60;;
50337;SDS011;46221;51.178;5.900;2022-12-11T14:58:39;6.50;;;4.43;;
50337;SDS011;46221;51.178;5.900;2022-12-11T15:01:19;6.93;;;4.38;;
50337;SDS011;46221;51.178;5.900;2022-12-11T15:03:46;8.63;;;5.80;;
50337;SDS011;46221;51.178;5.900;2022-12-11T15:08:51;8.15;;;4.82;;
50337;SDS011;46221;51.178;5.900;2022-12-11T15:11:18;8.35;;;5.28;;
50337;SDS011;46221;51.178;5.900;2022-12-11T15:13:50;8.52;;;4.70;;
50337;SDS011;46221;51.178;5.900;2022-12-11T15:16:17;6.82;;;4.13;;
50337;SDS011;46221;51.178;5.900;2022-12-11T15:18:46;7.63;;;4.88;;
50337;SDS011;46221;51.178;5.900;2022-12-11T15:21:13;7.32;;;4.82;;
50337;SDS011;46221;51.178;5.900;2022-12-11T15:23:49;8.35;;;5.85;;
50337;SDS011;46221;51.178;5.900;2022-12-11T15:26:16;6.22;;;4.63;;
50337;SDS011;46221;51.178;5.900;2022-12-11T15:28:43;8.70;;;4.70;;
50337;SDS011;46221;51.178;5.900;2022-12-11T15:31:32;7.22;;;4.78;;
50337;SDS011;46221;51.178;5.900;2022-12-11T15:33:56;6.95;;;4.70;;
50337;SDS011;46221;51.178;5.900;2022-12-11T15:38:55;8.65;;;5.75;;
50337;SDS011;46221;51.178;5.900;2022-12-11T15:41:22;8.10;;;4.93;;
50337;SDS011;46221;51.178;5.900;2022-12-11T15:43:52;7.43;;;5.13;;
50337;SDS011;46221;51.178;5.900;2022-12-11T15:46:24;10.23;;;5.10;;
50337;SDS011;46221;51.178;5.900;2022-12-11T15:48:50;8.63;;;5.60;;
50337;SDS011;46221;51.178;5.900;2022-12-11T15:51:16;5.93;;;4.28;;
50337;SDS011;46221;51.178;5.900;2022-12-11T15:53:43;8.57;;;5.60;;
50337;SDS011;46221;51.178;5.900;2022-12-11T15:56:13;10.10;;;5.30;;
50337;SDS011;46221;51.178;5.900;2022-12-11T15:58:40;6.90;;;4.53;;
50337;SDS011;46221;51.178;5.900;2022-12-11T16:01:06;8.40;;;5.15;;
50337;SDS011;46221;51.178;5.900;2022-12-11T16:03:33;7.88;;;5.30;;
50337;SDS011;46221;51.178;5.900;2022-12-11T16:05:59;8.00;;;4.88;;